Date,TemperatureHighF,TemperatureAvgF,TemperatureLowF,DewpointHighF,DewpointAvgF,DewpointLowF,HumidityHigh,HumidityAvg,HumidityLow,PressureMaxIn,PressureMinIn,WindSpeedMaxMPH,WindSpeedAvgMPH,GustSpeedMaxMPH,PrecipitationSumIn
2013-1-1,29.5,22.2,9.9,21.3,12.4,5.3,84,67,47,30.18,30.02,18,3,18,0.00
2013-1-2,25.3,17.3,5.8,17.7,12.0,2.3,88,79,68,30.23,30.10,9,1,11,0.00
2013-1-3,29.8,22.2,14.4,25.5,15.5,5.6,86,75,65,30.19,30.08,14,4,17,0.00
2013-1-4,29.7,26.5,21.6,24.2,19.1,14.8,84,73,61,30.20,30.05,29,6,29,0.00
2013-1-5,33.4,25.6,13.3,31.1,20.9,10.7,93,83,65,30.32,30.05,13,2,18,0.00
2013-1-6,36.2,33.9,32.7,32.9,29.9,26.3,93,86,77,30.26,29.92,17,5,21,0.00
2013-1-7,36.9,31.9,28.7,26.3,24.1,21.5,81,73,63,30.40,30.17,19,4,24,0.00
2013-1-8,38.3,29.6,23.5,27.6,24.0,20.0,91,80,63,30.27,30.18,12,2,12,0.00
2013-1-9,46.8,38.5,26.6,33.6,27.6,23.0,93,67,39,30.45,30.05,27,6,29,0.00
2013-1-10,40.3,32.8,23.3,33.3,27.3,21.3,95,81,60,30.59,30.20,12,2,12,0.00
2013-1-11,58.0,45.8,35.6,54.2,43.8,33.1,100,93,76,30.20,29.76,12,2,21,0.00
2013-1-12,60.1,51.7,43.6,51.9,48.2,43.1,100,88,70,29.92,29.83,14,2,18,0.00
2013-1-13,52.6,41.0,32.8,52.6,39.8,29.9,100,96,90,30.04,29.70,16,3,24,0.00
2013-1-14,32.7,25.7,17.7,29.8,18.4,14.0,89,74,59,30.45,30.04,22,6,24,0.00
2013-1-15,32.1,23.0,14.1,20.0,16.7,11.7,91,78,57,30.46,30.17,9,1,11,0.00
2013-1-16,39.5,29.9,20.8,26.6,20.5,16.2,93,70,41,30.17,29.83,19,4,21,0.00
2013-1-17,38.8,31.5,20.5,28.5,20.2,4.4,81,63,46,30.33,29.95,21,4,24,0.00
2013-1-18,35.5,27.0,17.7,23.0,14.0,6.7,67,58,45,30.47,30.00,18,2,26,0.00
2013-1-19,47.4,41.3,35.2,33.9,28.9,22.8,74,61,51,30.00,29.59,22,6,27,0.00
2013-1-20,43.9,24.0,17.5,34.0,9.9,2.8,75,55,42,30.21,29.56,31,9,40,0.00
2013-1-21,18.8,14.2,4.7,14.6,6.0,-3.2,87,70,57,30.18,29.98,14,1,18,0.00
2013-1-22,11.7,5.4,-3.5,3.9,-4.3,-11.3,80,64,49,30.33,30.15,14,1,17,0.00
2013-1-23,18.3,11.0,3.0,11.0,3.8,-2.5,86,72,59,30.33,30.12,7,0,12,0.00
2013-1-24,21.9,14.4,9.0,10.3,3.9,-1.8,86,65,38,30.61,30.13,6,0,12,0.00
2013-1-25,21.1,17.8,14.6,16.5,12.3,5.3,90,79,65,30.53,30.05,8,0,11,0.00
2013-1-26,27.0,21.4,15.6,18.8,14.5,10.3,91,76,53,30.47,30.07,9,0,12,0.00
2013-1-27,29.7,21.2,10.9,27.2,15.6,8.0,94,80,57,30.51,30.14,14,1,15,0.00
2013-1-28,47.7,39.7,29.7,47.6,39.3,27.4,100,98,91,30.17,29.85,12,2,17,0.00
2013-1-29,57.8,49.4,38.2,57.8,49.2,38.2,100,99,96,30.02,29.47,15,3,20,0.00
2013-1-30,61.8,51.5,33.7,57.3,49.4,28.5,100,93,81,29.47,29.11,32,6,36,0.00
2013-1-31,33.7,23.1,16.7,28.5,15.9,10.8,90,74,59,29.90,29.22,33,13,36,0.00
2013-2-1,19.1,14.9,8.8,13.6,7.7,0.9,88,73,61,30.32,29.90,21,8,21,0.00
2013-2-2,23.8,17.7,13.1,19.1,12.3,4.7,88,79,66,30.27,29.97,12,3,15,0.00
2013-2-3,21.9,14.5,4.7,17.2,7.7,1.2,87,75,60,30.04,29.88,19,4,24,0.00
2013-2-4,24.5,19.9,16.9,18.9,15.3,7.2,89,82,64,30.05,29.90,7,1,9,0.00
2013-2-5,28.1,22.8,18.0,25.6,17.9,13.5,92,82,60,29.96,29.84,12,2,12,0.00
2013-2-6,33.1,24.2,11.2,25.9,16.0,8.1,92,72,46,30.34,29.95,15,2,17,0.00
2013-2-7,38.3,30.0,24.1,27.5,23.0,18.0,82,75,64,30.30,29.87,18,4,18,0.00
2013-2-8,31.5,27.9,20.2,30.0,23.0,14.5,95,82,69,30.36,29.76,18,4,24,0.00
2013-2-9,32.9,21.6,8.8,20.6,15.5,5.5,90,78,55,30.47,30.32,12,2,12,0.00
2013-2-10,37.8,29.9,16.7,35.7,24.8,14.3,94,82,63,30.32,29.70,13,3,15,0.00
2013-2-11,46.1,38.6,32.4,43.9,31.5,24.3,94,76,63,29.88,29.56,24,10,29,0.00
2013-2-12,33.7,31.7,29.0,25.1,23.3,20.8,76,71,65,30.06,29.88,18,7,21,0.00
2013-2-13,41.1,30.3,26.7,25.9,22.0,19.8,88,72,50,29.94,29.74,11,2,12,0.00
2013-2-14,40.5,34.9,26.7,36.2,30.3,24.4,94,84,71,29.84,29.69,23,5,27,0.00
2013-2-15,35.5,29.1,24.1,27.8,17.2,11.6,76,61,48,30.13,29.84,19,7,24,0.00
2013-2-16,26.0,21.0,16.4,20.6,14.0,8.7,85,74,55,30.12,29.99,18,3,21,0.00
2013-2-17,25.0,17.2,9.9,13.8,7.2,3.7,86,66,44,30.24,30.07,18,4,18,0.00
2013-2-18,45.1,33.9,12.8,33.7,23.5,6.1,77,66,49,30.24,29.62,16,5,20,0.00
2013-2-19,46.0,29.4,18.3,42.2,23.4,11.4,95,78,60,29.95,29.42,26,11,29,0.00
2013-2-20,22.9,20.3,16.7,15.1,10.5,5.5,78,65,56,30.25,29.95,27,10,27,0.00
2013-2-21,29.5,22.8,20.8,17.3,13.9,11.4,80,69,51,30.40,30.25,14,4,17,0.00
2013-2-22,37.2,29.2,22.5,36.9,26.9,16.9,99,91,76,30.31,29.90,16,4,17,0.00
2013-2-23,34.9,30.3,21.1,34.1,22.2,15.9,97,72,57,29.94,29.88,17,4,18,0.00
2013-2-24,36.3,28.6,22.2,26.0,21.8,17.4,89,76,61,30.16,29.91,17,4,18,0.00
2013-2-25,42.1,30.2,18.9,30.6,22.3,17.0,95,74,49,30.24,30.10,12,1,12,0.00
2013-2-26,36.0,32.5,27.0,35.6,28.2,20.7,99,84,67,30.14,29.50,17,3,17,0.00
2013-2-27,39.2,36.6,34.7,38.7,36.3,34.7,100,99,96,29.58,29.43,11,1,14,0.00
2013-2-28,37.9,34.5,30.1,37.6,33.4,25.0,100,96,80,29.95,29.55,13,3,20,0.00
2013-3-1,30.1,27.5,25.6,25.0,21.2,18.9,81,77,73,30.12,29.95,14,3,18,0.00
2013-3-2,28.7,25.7,23.9,21.3,19.2,16.0,83,76,69,30.10,30.06,11,2,15,0.00
2013-3-3,32.1,23.9,16.2,18.0,15.0,12.4,87,70,48,30.08,30.00,20,4,21,0.00
2013-3-4,37.2,24.8,15.2,19.4,15.3,10.7,87,69,42,30.18,30.07,11,1,12,0.00
2013-3-5,38.3,27.8,18.6,25.6,21.4,15.9,92,77,59,30.14,29.83,18,3,21,0.00
2013-3-6,42.5,34.2,27.5,29.5,26.6,22.1,85,74,57,30.20,29.83,9,1,10,0.00
2013-3-7,39.2,33.7,25.0,30.6,25.8,18.0,85,73,56,30.41,30.20,14,2,16,0.00
2013-3-8,47.3,33.1,23.3,28.2,22.8,17.7,87,68,43,30.51,30.40,12,1,12,0.00
2013-3-9,44.2,34.6,23.8,31.8,27.7,22.1,95,77,56,30.44,30.05,16,3,16,0.00
2013-3-10,37.2,36.5,36.0,32.3,31.8,31.3,84,83,82,30.05,30.02,1,0,2,0.00
2013-3-11,56.3,48.5,38.0,49.9,42.7,32.1,96,81,55,29.80,29.46,36,6,36,0.00
2013-3-12,39.8,35.0,28.7,32.8,29.1,24.6,89,79,67,29.94,29.69,20,5,24,0.00
2013-3-13,32.4,29.5,25.7,27.2,20.6,13.1,91,70,51,30.20,29.86,24,9,30,0.00
2013-3-14,42.5,31.7,23.6,22.4,17.2,12.4,73,56,37,30.28,30.09,17,5,18,0.00
2013-3-15,38.3,33.8,30.7,30.4,26.5,21.2,82,74,67,30.09,29.91,14,4,15,0.00
2013-3-16,36.2,31.1,27.8,35.2,26.6,20.5,96,84,71,30.06,29.76,12,2,12,0.00
2013-3-17,36.2,28.0,19.2,34.2,19.0,10.4,94,70,47,30.28,30.05,19,3,19,0.00
2013-3-18,36.5,31.6,23.3,36.5,29.2,17.5,100,91,76,30.20,29.55,17,4,27,0.00
2013-3-19,35.0,28.0,23.6,34.9,19.2,12.6,100,70,58,29.95,29.62,28,12,38,0.00
2013-3-20,31.5,25.9,19.2,17.6,14.3,7.4,73,61,48,29.97,29.90,23,9,27,0.00
2013-3-21,32.8,24.8,16.2,23.1,16.9,8.8,83,72,59,29.95,29.88,22,9,26,0.00
2013-3-22,41.3,31.9,26.6,22.4,19.5,16.4,81,61,42,30.03,29.94,23,6,24,0.00
2013-3-23,41.3,31.7,20.8,25.4,22.2,17.8,91,69,48,30.11,30.02,17,2,17,0.00
2013-3-24,39.2,31.3,23.5,27.0,23.1,18.3,92,73,49,30.06,29.62,12,2,15,0.00
2013-3-25,39.9,34.6,30.1,30.6,26.2,22.9,89,72,59,29.90,29.55,13,3,16,0.00
2013-3-26,45.1,37.9,34.0,30.8,27.9,25.8,79,67,50,30.11,29.90,17,6,21,0.00
2013-3-27,47.4,39.0,30.6,30.1,26.1,22.8,81,61,40,30.19,30.11,22,9,27,0.00
2013-3-28,54.4,42.0,31.3,27.9,24.9,21.3,75,53,29,30.26,30.19,21,6,21,0.00
2013-3-29,56.2,42.3,31.0,26.6,21.7,17.5,70,47,24,30.29,30.18,13,4,18,0.00
2013-3-30,59.2,42.9,27.0,31.1,23.5,12.9,80,51,19,30.22,29.93,17,3,17,0.00
2013-3-31,61.3,46.9,35.8,44.7,34.0,26.9,88,64,30,29.93,29.60,22,5,28,0.02
2013-4-1,44.9,34.3,27.8,31.9,16.8,8.7,73,50,28,30.11,29.67,24,10,27,0.00
2013-4-2,42.5,30.5,23.2,18.2,13.7,9.6,74,52,27,30.19,30.11,22,7,24,0.00
2013-4-14,48.9,40.1,30.3,38.4,33.0,27.4,92,76,62,30.12,29.94,16,2,16,0.01
2013-4-15,69.4,55.2,34.9,53.8,45.1,32.8,93,70,52,29.97,29.85,15,3,18,0.00
2013-4-16,62.7,56.0,49.5,53.1,44.6,34.1,94,68,39,30.19,29.84,13,2,15,0.32
2013-4-17,58.5,48.5,41.6,43.4,36.7,31.1,93,65,47,30.32,30.05,7,1,12,1.10
2013-4-18,79.8,59.0,44.1,66.1,54.4,42.0,96,86,54,30.06,29.56,10,2,20,1.05
2013-4-19,58.9,46.2,37.3,57.8,41.1,30.3,97,83,67,29.75,29.30,10,3,19,0.28
2013-4-20,42.1,36.0,30.6,32.2,23.8,17.9,91,62,46,30.45,29.75,8,3,17,0.00
2013-4-21,48.7,37.1,23.7,32.9,25.2,21.3,93,64,39,30.64,30.45,7,1,16,0.00
2013-4-22,62.5,46.8,30.3,37.6,30.7,21.4,96,59,21,30.48,30.19,6,1,10,0.00
2013-4-23,71.5,55.2,38.0,54.5,42.4,33.8,96,66,36,30.19,29.78,7,1,17,0.27
2013-4-24,55.4,42.1,36.2,54.2,39.3,29.3,96,90,73,30.14,29.69,6,2,17,0.48
2013-4-25,52.9,41.4,30.7,42.2,32.4,27.3,91,72,42,30.35,30.11,8,2,17,0.05
2013-4-26,59.6,44.9,29.3,38.6,33.3,27.0,93,66,43,30.47,30.34,6,1,12,0.00
2013-4-27,68.5,53.5,35.2,43.7,37.1,30.4,97,60,25,30.37,30.08,6,1,12,0.00
2013-4-28,54.4,52.2,47.6,53.7,46.3,33.9,98,82,54,30.09,29.81,4,0,7,0.29
2013-4-29,69.5,58.9,53.2,56.2,53.8,52.1,98,84,59,29.92,29.81,5,0,8,0.02
2013-4-30,71.1,61.1,52.2,57.5,54.1,50.7,96,79,58,30.06,29.91,7,1,12,0.00
2013-5-1,81.3,65.6,49.4,59.9,53.9,48.1,97,69,39,30.20,30.04,6,1,9,0.00
2013-5-2,78.5,65.3,52.4,57.3,49.9,42.6,86,60,37,30.22,30.11,7,1,12,0.00
2013-5-3,77.5,66.3,56.2,55.8,45.0,31.9,64,49,20,30.11,30.02,7,1,14,0.00
2013-5-4,72.4,63.5,54.0,47.9,41.9,35.3,76,47,28,30.10,30.02,7,1,14,0.00
2013-5-5,74.2,62.8,52.5,45.4,40.0,33.1,71,46,24,30.08,29.99,7,1,12,0.00
2013-5-6,76.6,61.9,45.7,51.1,43.3,38.9,82,52,34,30.04,29.94,6,0,9,0.00
2013-5-7,78.3,64.2,50.3,54.7,48.2,39.5,77,58,38,30.03,29.95,7,0,10,0.00
2013-5-8,81.3,65.0,55.5,59.9,51.5,44.3,91,64,34,29.99,29.89,7,0,10,0.10
2013-5-9,81.3,66.5,51.3,57.7,51.6,42.7,97,64,29,29.94,29.86,4,0,7,0.00
2013-5-10,75.0,61.1,44.3,62.9,54.7,39.7,96,80,59,29.88,29.70,5,1,12,0.19
2013-5-11,62.1,48.0,39.7,48.6,41.8,33.7,90,80,54,29.89,29.72,6,1,14,0.02
2013-5-12,48.9,41.8,33.7,34.2,30.4,25.4,86,65,45,30.09,29.87,6,2,15,0.00
2013-5-13,56.4,42.6,27.8,32.3,26.8,23.1,93,58,29,30.18,30.08,4,0,8,0.00
2013-5-14,76.9,58.0,41.7,52.5,41.9,31.9,74,57,36,30.11,29.70,7,1,12,0.00
2013-5-15,84.2,72.2,56.2,59.8,50.4,41.8,95,51,26,29.75,29.56,6,2,13,0.00
2013-5-16,85.2,69.2,50.9,49.4,45.6,37.6,85,47,24,29.98,29.74,5,1,9,0.00
2013-5-17,75.8,62.0,49.0,49.1,43.0,36.6,76,51,32,30.12,29.98,6,0,9,0.00
2013-5-18,82.9,66.9,54.6,53.1,45.1,38.3,70,48,22,30.12,30.00,6,1,9,0.00
2013-5-19,88.5,70.2,55.1,65.2,56.6,45.6,79,63,40,30.01,29.85,4,0,9,0.00
2013-5-20,90.4,75.7,61.6,71.9,64.6,58.9,95,71,40,29.89,29.73,6,1,12,0.00
2013-5-21,88.3,77.5,68.8,68.3,63.6,58.8,92,64,38,29.78,29.66,4,0,10,0.02
2013-5-22,85.0,70.1,61.7,66.5,62.6,57.8,92,79,42,29.70,29.58,10,1,21,0.09
2013-5-23,65.9,53.5,42.8,61.2,50.7,38.8,96,90,79,30.12,29.65,3,0,12,0.26
2013-5-24,57.7,47.2,39.9,39.5,36.4,32.2,94,68,45,30.34,30.12,6,0,9,0.00
2013-5-25,68.0,51.8,35.4,42.1,37.1,33.3,95,62,31,30.40,30.26,6,0,12,0.00
2013-5-26,73.3,55.6,36.9,40.7,36.7,31.5,95,55,25,30.33,30.21,4,0,7,0.00
2013-5-27,60.3,51.3,43.5,50.5,43.5,31.6,96,76,43,30.25,30.00,3,0,8,0.71
2013-5-28,79.3,63.4,51.2,70.7,60.6,50.1,98,91,72,30.00,29.78,4,0,9,0.24
2013-5-29,85.7,76.4,68.1,67.3,65.1,61.7,87,69,46,29.95,29.75,5,1,12,0.00
2013-5-30,87.9,73.5,63.5,74.7,66.5,61.1,94,80,52,30.02,29.92,7,0,14,0.31
2013-5-31,82.3,73.2,68.3,70.8,67.3,64.6,95,82,63,29.96,29.83,4,0,14,0.17
2013-6-1,80.8,71.0,63.4,69.6,64.7,62.1,97,82,61,29.84,29.66,4,1,9,0.14
2013-6-2,72.0,66.0,55.3,65.6,58.5,45.7,94,77,62,29.94,29.62,5,1,9,0.02
2013-6-3,70.0,57.5,45.2,47.1,42.4,37.1,85,60,34,30.06,29.94,4,0,7,0.00
2013-6-4,74.8,60.3,48.6,50.8,45.1,31.3,88,60,36,30.17,30.05,4,0,7,0.00
2013-6-5,76.7,62.7,51.4,53.0,43.9,33.3,72,52,31,30.15,29.95,5,0,9,0.00
2013-6-6,72.8,61.6,55.7,56.6,49.2,42.1,75,64,53,29.97,29.82,2,0,6,0.00
2013-6-7,62.2,57.4,52.0,54.4,51.4,48.6,91,81,72,29.89,29.83,2,0,4,0.00
2013-6-8,74.3,63.5,56.5,56.2,53.4,50.8,85,71,48,30.05,29.88,2,0,5,0.00
2013-6-9,77.7,67.3,57.2,59.9,56.4,52.1,93,70,47,30.08,29.92,4,0,12,0.00
2013-6-10,69.7,65.3,60.7,67.8,63.7,56.6,98,95,76,29.92,29.70,1,0,4,0.84
2013-6-11,83.3,72.1,64.6,67.1,64.9,62.6,98,80,54,29.85,29.72,3,0,7,0.00
2013-6-12,77.0,69.7,62.3,69.0,65.2,60.6,96,86,73,29.89,29.60,3,0,7,0.25
2013-6-13,78.8,69.1,60.6,65.1,59.2,53.6,97,74,45,29.87,29.47,6,0,12,1.24
2013-6-14,80.4,68.5,60.2,58.8,55.7,51.0,85,65,40,30.03,29.88,4,0,7,0.00
2013-6-15,79.7,67.1,55.3,65.5,59.3,53.8,96,78,51,30.06,29.89,3,0,7,0.02
2013-6-16,83.8,71.6,63.2,67.8,62.6,53.1,96,76,43,29.90,29.74,4,1,8,0.36
2013-6-17,87.6,72.3,59.2,65.5,59.2,54.9,88,66,37,29.89,29.78,4,0,10,0.00
2013-6-18,76.0,65.8,57.2,60.6,53.9,41.3,91,68,42,30.04,29.83,2,0,6,0.00
2013-6-19,76.9,62.5,49.0,57.0,49.4,40.8,86,64,42,30.14,30.03,3,0,6,0.00
2013-6-20,81.9,67.0,51.5,60.2,54.6,49.6,96,68,41,30.19,30.12,3,0,7,0.00
2013-6-21,87.7,73.0,57.6,68.2,61.7,54.5,94,70,43,30.17,30.01,3,0,8,0.00
2013-6-22,88.3,74.1,67.9,74.8,67.0,60.3,96,79,59,30.06,29.94,6,0,12,1.32
2013-6-23,91.3,78.2,68.1,75.1,69.4,65.2,98,77,49,30.03,29.92,4,0,9,0.00
2013-6-24,88.9,78.2,67.5,73.1,68.9,64.7,93,74,55,30.02,29.87,3,0,8,0.00
2013-6-25,85.7,75.1,67.8,75.1,69.3,64.0,95,83,66,29.94,29.76,4,0,7,0.45
2013-6-26,84.3,73.8,66.7,74.0,69.0,65.5,97,86,66,29.86,29.70,2,0,5,0.22
2013-6-27,84.0,72.2,66.0,73.1,69.1,64.9,98,91,64,29.72,29.59,3,0,7,1.04
2013-6-28,76.3,67.3,62.5,69.2,64.4,59.1,98,91,68,29.60,29.47,4,0,8,0.24
2013-6-29,73.8,66.7,62.2,66.7,63.4,57.5,97,89,70,29.69,29.50,1,0,4,0.11
2013-6-30,81.2,69.5,60.4,64.8,59.2,49.3,92,72,45,29.89,29.69,2,0,10,0.00
2013-7-1,66.6,62.4,59.5,61.8,56.5,48.0,96,82,55,30.02,29.89,1,0,5,0.82
2013-7-2,75.7,66.1,58.7,65.1,60.8,56.8,95,84,67,30.04,29.97,2,0,5,0.00
2013-7-3,84.1,71.4,60.8,71.7,65.6,59.4,96,83,56,30.06,30.00,3,0,7,0.00
2013-7-4,81.6,74.3,70.1,69.9,68.3,65.5,94,83,60,30.09,30.03,2,0,5,0.00
2013-7-5,83.8,74.3,69.9,72.0,68.9,66.5,96,84,60,30.07,30.01,3,0,5,0.00
2013-7-6,84.2,73.8,68.4,72.8,69.7,66.9,97,88,66,30.07,29.95,3,0,5,0.24
2013-7-7,83.5,74.1,68.9,72.4,69.3,67.1,98,86,62,29.99,29.91,3,0,6,0.03
2013-7-8,82.2,72.6,67.1,75.6,69.8,65.7,97,91,71,30.00,29.93,3,0,5,0.19
2013-7-9,89.5,75.6,71.2,76.5,72.2,70.2,98,90,61,29.95,29.87,4,0,5,0.01
2013-7-10,86.7,75.8,66.4,79.5,71.1,60.2,98,86,60,29.89,29.72,5,0,9,0.09
2013-7-11,80.3,69.9,60.9,62.0,58.4,54.8,89,69,46,30.02,29.89,3,0,5,0.00
2013-7-12,83.4,69.7,56.9,66.0,60.2,54.9,94,74,46,30.12,30.02,3,0,6,0.00
2013-7-13,85.3,73.5,61.5,68.5,63.8,59.1,95,74,51,30.17,30.09,3,0,5,0.00
2013-7-14,89.7,77.4,66.8,74.8,69.0,63.6,96,77,56,30.21,30.16,2,0,6,0.00
2013-7-15,93.3,80.1,70.6,80.3,73.7,68.9,96,82,57,30.25,30.17,2,0,5,0.07
2013-7-16,89.2,81.4,75.9,80.5,76.9,74.7,97,87,66,30.25,30.18,3,0,5,0.00
2013-7-17,95.7,83.3,73.1,79.6,75.2,71.3,95,78,55,30.23,30.09,3,0,6,0.00
2013-7-18,94.3,81.9,72.8,81.8,75.3,71.3,96,82,51,30.11,29.91,4,0,6,0.45
2013-7-19,94.7,83.7,75.4,78.4,74.1,69.7,89,75,50,29.92,29.67,6,1,12,0.00
2013-7-20,88.0,77.2,70.1,74.5,67.8,61.2,98,76,45,29.87,29.67,7,0,13,0.46
2013-7-21,86.3,74.0,63.4,67.3,62.8,56.9,89,69,44,29.96,29.86,3,0,4,0.00
2013-7-22,83.5,74.2,69.2,70.3,67.2,62.4,92,79,53,29.91,29.71,2,0,4,0.00
2013-7-23,86.8,71.4,61.9,73.3,66.0,52.8,96,84,59,29.83,29.61,3,0,8,0.26
2013-7-24,76.3,65.8,55.5,56.7,52.4,48.8,82,63,44,30.01,29.83,3,0,6,0.00
2013-7-25,78.2,64.7,51.2,60.8,54.8,49.3,94,72,50,30.08,30.01,3,0,5,0.00
2013-7-26,80.0,68.2,56.2,62.3,58.7,54.6,96,74,50,30.07,29.87,3,0,5,0.00
2013-7-27,76.0,66.6,58.5,68.6,62.7,52.0,95,87,72,29.87,29.68,4,0,8,0.12
2013-7-28,69.0,59.2,50.8,56.8,52.9,49.4,96,81,58,29.96,29.80,4,0,9,0.00
2013-7-29,71.3,61.8,55.2,59.1,55.1,51.9,92,79,57,30.15,29.96,3,0,7,0.00
2013-7-30,81.0,65.9,52.0,63.4,57.6,50.7,98,77,46,30.21,30.09,2,0,6,0.00
2013-7-31,76.2,69.1,63.1,67.9,64.9,60.5,96,87,69,30.09,29.84,2,0,5,0.08
2013-8-1,82.3,69.4,62.6,66.6,62.1,56.3,96,80,45,29.88,29.82,3,0,6,0.00
2013-8-2,74.1,65.6,55.9,65.5,59.6,53.3,95,81,62,29.90,29.81,4,0,10,0.00
2013-8-3,80.3,70.1,58.4,64.2,58.5,52.2,98,70,39,30.00,29.86,4,0,6,0.00
2013-8-4,77.1,65.6,55.9,57.7,54.6,50.5,91,69,43,30.11,30.00,3,0,6,0.00
2013-8-5,72.6,65.8,58.4,60.1,55.1,49.4,79,69,55,30.09,29.93,3,0,5,0.00
2013-8-6,80.3,70.3,63.8,68.2,63.7,59.6,93,80,60,29.94,29.86,2,0,6,0.01
2013-8-7,86.9,73.4,65.8,73.3,67.7,63.5,96,83,57,29.88,29.78,2,0,5,0.03
2013-8-8,79.3,71.4,66.3,71.0,65.6,59.3,95,82,65,29.96,29.84,1,0,4,0.00
2013-8-9,84.4,71.2,62.0,62.8,58.1,54.0,81,65,40,29.96,29.90,3,0,5,0.00
2013-8-10,79.8,70.8,61.9,63.3,61.0,58.1,93,72,50,30.09,29.96,2,0,4,0.00
2013-8-11,82.8,69.1,55.7,64.7,58.7,53.4,94,72,45,30.09,29.98,2,0,4,0.00
2013-8-12,72.0,66.8,64.0,69.3,63.8,60.6,97,90,75,30.02,29.80,3,0,8,1.82
2013-8-13,69.4,63.1,54.1,64.6,54.3,47.4,97,75,50,30.02,29.78,5,0,10,0.02
2013-8-14,73.0,60.1,50.0,55.0,50.3,46.3,90,72,48,30.13,30.01,3,0,7,0.00
2013-8-15,76.0,64.3,48.8,56.9,53.4,47.7,98,71,46,30.15,30.06,2,0,5,0.00
2013-8-16,81.2,66.0,53.1,59.8,55.4,51.5,97,71,42,30.17,30.09,2,0,4,0.00
2013-8-17,82.5,67.2,53.8,61.8,56.9,52.3,97,73,38,30.23,30.15,3,0,5,0.00
2013-8-18,83.2,69.0,58.6,65.9,60.1,57.4,98,76,45,30.18,30.08,3,0,5,0.00
2013-8-19,85.5,70.7,57.8,65.4,60.4,56.4,97,74,41,30.09,30.00,2,0,5,0.00
2013-8-20,87.2,73.2,60.8,70.5,64.9,59.5,97,77,49,30.11,30.02,3,0,5,0.00
2013-8-21,87.9,75.3,63.2,71.4,66.7,61.7,97,76,53,30.10,29.95,3,0,7,0.00
2013-8-22,82.7,75.2,69.8,71.5,68.6,66.8,95,80,64,30.00,29.91,3,0,5,0.03
2013-8-23,86.7,73.1,61.6,68.2,57.3,49.3,90,62,29,30.16,29.98,3,0,5,0.00
2013-8-24,83.2,69.5,56.9,63.9,58.6,53.8,97,71,43,30.28,30.16,2,0,6,0.00
2013-8-25,88.6,73.0,56.7,66.8,62.1,55.4,97,72,44,30.27,30.10,3,0,7,0.00
2013-8-26,89.3,76.9,64.8,73.9,67.9,61.6,90,75,56,30.12,29.92,2,0,5,0.00
2013-8-27,83.4,76.6,71.7,77.0,72.9,69.7,97,89,76,29.95,29.79,4,0,6,0.60
2013-8-28,85.5,77.4,71.9,75.2,72.9,68.2,97,87,65,29.95,29.73,2,0,6,0.43
2013-8-29,88.8,74.7,66.5,74.7,69.8,65.3,97,86,56,30.03,29.95,2,0,5,0.08
2013-8-30,88.9,75.9,65.2,74.4,69.2,64.4,98,82,55,29.96,29.70,3,0,8,0.83
2013-8-31,82.8,74.1,69.7,72.2,69.8,66.5,98,87,67,29.79,29.67,2,0,5,0.01
2013-9-1,83.9,73.8,68.4,74.4,69.0,65.7,93,85,70,29.80,29.67,2,0,5,0.00
2013-9-2,78.0,70.7,62.3,70.2,63.2,52.7,96,78,57,29.86,29.67,4,0,8,0.00
2013-9-3,77.3,64.6,58.6,59.5,55.1,51.8,89,73,50,29.99,29.86,4,0,8,0.00
2013-9-4,83.2,67.7,53.5,64.6,58.7,52.1,96,75,48,30.05,29.96,3,0,10,0.00
2013-9-5,75.1,65.1,55.3,62.5,53.4,45.7,92,68,39,30.23,30.02,3,0,5,0.00
2013-9-6,78.0,61.0,47.1,56.1,48.4,34.6,97,68,27,30.25,30.05,3,0,8,0.00
2013-9-7,81.2,67.1,55.1,70.7,61.3,50.7,93,82,67,30.05,29.85,2,0,4,0.02
2013-9-8,77.3,69.7,57.1,67.2,60.3,50.8,92,74,47,30.03,29.88,3,0,7,0.00
2013-9-9,75.0,63.9,53.2,70.2,61.1,50.9,96,91,82,30.04,29.88,2,0,4,0.18
2013-9-10,95.3,81.2,68.2,77.1,71.6,67.0,97,75,43,29.96,29.85,3,0,7,0.00
2013-9-11,94.1,79.0,69.8,76.0,70.3,66.0,95,76,52,29.98,29.84,6,0,13,0.06
2013-9-12,80.5,69.7,58.3,68.5,62.0,49.5,97,79,45,29.91,29.79,4,0,10,0.00
2013-9-13,61.7,55.2,44.5,50.0,45.3,40.1,86,70,52,30.11,29.91,3,0,7,0.00
2013-9-14,70.8,55.7,39.2,50.3,43.1,37.9,97,67,34,30.18,30.08,2,0,4,0.00
2013-9-15,64.5,55.6,46.6,56.9,51.3,45.1,96,86,66,30.10,30.03,2,0,4,0.03
2013-9-16,66.4,56.6,47.8,54.8,50.1,42.3,97,80,52,30.35,30.10,3,0,5,0.00
2013-9-17,71.3,53.7,40.2,52.7,45.1,38.8,97,76,43,30.39,30.20,3,0,9,0.00
2013-9-18,75.7,59.6,46.5,60.4,53.0,45.1,97,81,50,30.20,30.02,3,0,7,0.00
2013-9-19,81.8,67.6,57.2,69.5,63.6,56.2,98,88,64,30.02,29.88,3,0,5,0.00
2013-9-20,83.2,71.7,67.6,73.4,68.4,66.1,97,90,67,29.90,29.69,4,0,8,0.68
2013-9-21,70.5,63.2,56.5,66.1,56.7,46.1,98,81,52,29.83,29.63,4,0,9,0.17
2013-9-22,62.8,54.8,50.0,46.3,43.6,40.3,82,66,52,30.06,29.83,4,0,8,0.00
2013-9-23,65.4,52.8,43.2,49.2,44.3,40.8,95,75,48,30.17,30.05,3,0,5,0.00
2013-9-24,70.7,54.4,44.4,54.4,48.5,42.8,97,82,52,30.13,29.98,3,0,6,0.00
2013-9-25,73.9,57.7,47.1,58.3,51.4,46.0,98,82,51,30.00,29.91,3,0,5,0.00
2013-9-26,79.6,60.7,47.9,56.2,50.5,46.4,98,74,37,30.11,29.97,2,0,5,0.00
2013-9-27,78.5,60.5,48.3,61.6,54.4,47.1,98,82,49,30.21,30.12,4,0,8,0.00
2013-9-28,78.0,63.4,51.9,63.4,55.6,51.1,98,78,46,30.17,29.99,4,0,9,0.00
2013-9-29,63.7,61.6,59.1,61.6,58.1,54.6,97,89,77,30.00,29.92,1,0,4,0.07
2013-9-30,74.0,62.8,58.0,59.8,57.3,53.9,98,84,51,29.99,29.89,4,0,8,0.00
2013-10-1,71.7,60.0,51.5,64.0,57.5,50.5,98,92,75,30.00,29.91,3,0,6,0.00
2013-10-2,82.5,66.9,56.8,61.1,56.5,50.8,97,74,35,30.04,29.93,3,0,5,0.00
2013-10-3,77.0,65.9,56.0,69.1,61.7,52.6,96,87,75,30.03,29.89,4,0,8,0.00
2013-10-4,81.1,71.5,65.3,69.2,66.1,63.3,95,84,62,29.98,29.91,2,0,5,0.00
2013-10-5,73.7,68.7,65.2,69.2,66.0,63.6,97,91,79,30.00,29.83,3,0,7,0.09
2013-10-6,70.8,65.7,56.7,67.8,64.1,55.6,97,95,85,29.83,29.59,3,0,8,0.22
2013-10-7,59.7,51.9,44.0,55.6,47.4,41.8,97,85,67,30.10,29.65,4,0,10,0.01
2013-10-8,68.6,52.7,40.9,50.5,44.2,39.8,98,77,39,30.28,30.10,4,0,7,0.00
2013-10-9,72.6,55.4,42.7,56.9,47.1,41.6,98,77,43,30.30,30.20,3,0,8,0.00
2013-10-10,75.0,55.8,43.0,55.8,46.9,41.9,98,77,33,30.21,30.11,3,0,5,0.00
2013-10-11,76.5,57.0,42.3,54.6,48.3,41.1,98,77,38,30.13,30.05,3,0,4,0.00
2013-10-12,78.7,61.4,49.4,63.1,55.0,48.4,98,83,36,30.08,30.01,4,0,8,0.00
2013-10-13,71.2,60.8,50.5,58.9,48.5,40.1,97,68,33,30.31,30.05,3,0,6,0.00
2013-10-14,67.6,52.4,43.0,47.3,44.2,41.1,97,76,45,30.38,30.25,2,0,5,0.00
2013-10-15,63.0,53.8,42.4,60.6,51.4,41.1,98,92,83,30.26,29.82,4,0,8,0.04
2013-10-16,63.9,58.3,52.3,61.3,52.0,45.1,97,81,55,29.89,29.78,5,1,9,0.01
2013-10-17,52.3,49.5,45.0,49.9,46.8,43.1,96,91,82,29.88,29.74,2,0,6,0.12
2013-10-18,65.5,51.5,40.7,48.8,43.9,39.6,96,78,47,29.91,29.82,3,0,7,0.00
2013-10-19,48.9,42.8,37.5,46.4,40.8,36.1,96,93,81,29.89,29.73,4,0,9,0.19
2013-10-20,61.4,47.9,37.5,45.1,40.7,35.9,97,78,47,29.92,29.83,5,0,10,0.02
2013-10-21,55.7,50.4,39.1,49.1,43.7,35.6,93,78,64,29.86,29.78,5,1,10,0.07
2013-10-22,52.0,41.7,31.1,36.5,32.6,28.4,91,71,49,29.92,29.83,4,0,12,0.01
2013-10-23,49.1,39.8,32.6,36.5,32.4,27.0,95,77,45,29.93,29.80,4,0,7,0.00
2013-10-24,47.7,38.5,31.4,35.5,31.5,26.1,95,78,46,30.17,29.91,4,1,8,0.01
2013-10-25,50.1,38.8,31.5,36.3,31.6,28.4,94,77,48,30.32,30.12,4,0,8,0.00
2013-10-26,51.6,42.5,37.2,39.2,32.8,28.6,96,69,57,30.12,29.78,8,1,16,0.03
2013-10-27,55.2,40.7,31.2,38.2,33.7,29.9,96,78,47,30.07,29.97,3,0,7,0.01
2013-10-28,53.0,41.6,31.8,42.5,35.2,29.3,92,78,66,30.38,30.02,3,0,6,0.00
2013-10-29,52.6,43.3,34.5,39.7,35.8,31.4,90,75,59,30.43,30.24,3,0,5,0.00
2013-10-30,64.8,47.7,32.9,51.8,40.9,31.6,97,80,47,30.23,29.95,3,0,7,0.21
2013-10-31,62.3,59.4,53.2,61.3,58.2,51.8,98,96,92,29.95,29.13,6,2,12,1.70
2013-11-1,61.1,49.4,45.6,60.0,45.0,40.9,96,85,75,29.65,29.10,8,2,15,0.04
2013-11-2,48.2,44.7,37.6,44.8,41.3,32.8,97,88,77,30.08,29.63,10,1,14,0.11
2013-11-3,48.6,39.3,33.1,36.9,33.3,30.8,94,80,58,30.44,30.08,1,0,9,0.00
2013-11-4,48.9,41.9,33.6,37.6,33.5,28.9,92,73,47,30.47,30.30,14,2,15,0.00
2013-11-5,55.5,49.3,40.9,48.4,43.6,37.1,89,81,70,30.36,30.16,7,1,9,0.00
2013-11-6,57.6,53.1,44.3,52.9,47.3,38.8,91,81,65,30.16,29.78,16,4,20,0.09
2013-11-7,45.9,41.3,36.6,39.4,32.2,25.8,90,71,50,30.12,29.95,16,5,26,0.01
2013-11-8,47.2,37.7,32.4,33.1,29.4,26.0,89,73,45,30.28,30.11,10,2,10,0.00
2013-11-9,57.4,48.6,37.6,42.5,36.8,30.7,81,64,52,30.18,29.79,19,4,26,0.00
2013-11-10,49.3,43.2,33.5,40.7,32.0,28.6,84,65,53,30.25,29.88,19,5,24,0.00
2013-11-11,43.8,37.0,28.8,39.5,31.9,21.0,94,82,73,30.30,30.01,12,2,15,0.06
2013-11-12,35.1,29.2,23.9,24.2,19.7,16.8,81,68,50,30.55,30.30,18,4,20,0.00
2013-11-13,40.6,29.5,18.8,25.3,20.1,15.6,90,70,43,30.55,30.17,15,3,20,0.00
2013-11-14,52.0,39.9,29.2,27.8,23.8,20.4,72,54,35,30.19,30.00,13,4,21,0.00
2013-11-15,52.1,44.0,38.1,32.1,28.6,24.5,69,55,44,30.07,29.99,10,2,12,0.00
2013-11-16,57.0,47.0,32.8,52.5,42.0,30.3,94,83,66,30.10,29.80,12,3,15,0.00
2013-11-17,64.0,57.3,48.3,60.0,53.2,41.8,95,86,70,29.80,29.23,33,8,33,1.07
2013-11-18,48.2,41.5,35.3,41.7,32.2,24.7,78,70,64,30.11,29.46,25,11,33,0.00
2013-11-19,44.3,35.6,28.1,25.8,24.2,22.0,86,64,43,30.41,30.11,13,3,15,0.00
2013-11-20,46.1,36.0,24.6,33.9,27.4,22.6,95,73,42,30.44,30.24,17,4,18,0.00
2013-11-21,46.5,43.4,40.2,43.4,38.5,29.9,97,83,63,30.28,30.16,11,2,14,0.29
2013-11-22,46.3,40.4,29.1,45.2,37.7,25.1,97,90,75,30.35,30.11,14,2,21,0.09
2013-11-23,30.8,25.2,18.0,25.3,17.5,7.7,92,74,47,30.53,30.26,19,4,24,0.00
2013-11-24,26.2,19.3,14.2,14.8,10.7,9.1,85,70,50,30.61,30.45,14,4,15,0.00
2013-11-25,31.5,25.8,18.2,25.4,17.4,12.2,86,71,56,30.45,30.11,15,4,21,0.00
2013-11-26,35.8,32.2,29.7,28.7,27.0,24.8,86,81,73,30.12,29.92,10,2,14,0.00
2013-11-27,30.7,25.3,19.8,25.9,15.9,10.9,83,67,53,30.20,29.90,18,6,23,0.00
2013-11-28,28.9,23.1,16.5,22.0,16.8,12.2,90,77,63,30.43,30.20,9,1,12,0.01
2013-11-29,36.1,24.4,14.2,24.3,18.9,12.0,94,81,54,30.67,30.43,7,0,8,0.00
2013-11-30,46.6,34.6,26.2,29.2,26.2,22.5,86,72,50,30.58,30.10,8,2,12,0.00
2013-12-1,46.8,35.9,29.5,36.0,30.2,25.7,94,80,66,30.10,29.96,10,1,10,0.00
2013-12-2,40.7,33.2,24.1,32.3,26.9,21.3,94,79,54,29.99,29.88,6,0,8,0.00
2013-12-3,38.4,34.4,24.0,37.1,31.9,21.5,95,90,82,29.91,29.84,7,1,8,0.07
2013-12-4,57.4,46.2,36.9,53.2,43.8,35.6,97,91,85,29.89,29.62,18,2,20,0.01
2013-12-5,59.5,44.9,31.5,55.3,37.2,22.4,87,75,64,30.13,29.59,20,6,23,0.00
2013-12-6,31.5,27.8,22.2,23.4,19.1,14.4,75,69,65,30.40,30.10,12,3,15,0.00
2013-12-7,26.9,20.4,14.0,14.6,11.3,9.2,85,68,51,30.63,30.40,13,2,16,0.00
2013-12-8,29.9,21.2,12.5,28.5,16.6,8.4,95,82,71,30.62,30.01,12,1,15,0.00
2013-12-9,30.0,26.6,19.9,28.7,22.3,13.8,95,84,71,30.11,29.89,15,5,20,0.00
2013-12-10,22.9,18.8,12.1,14.0,10.4,4.3,79,70,51,30.21,29.97,16,4,23,0.00
2013-12-11,24.0,17.9,9.2,19.7,12.1,2.3,87,78,67,30.48,30.20,12,3,20,0.00
2013-12-12,18.3,12.9,3.5,11.7,5.4,-0.6,87,72,52,30.48,30.21,11,3,16,0.00
2013-12-13,29.4,23.3,17.4,21.7,17.4,10.9,81,78,72,30.29,30.17,8,1,12,0.00
2013-12-14,22.6,20.6,19.3,19.8,17.8,14.4,92,89,73,30.28,29.81,6,1,10,0.00
2013-12-15,25.9,20.9,15.3,22.4,17.0,10.1,92,85,70,30.05,29.81,20,4,23,0.00
2013-12-16,23.3,13.5,3.2,15.7,9.2,0.4,92,83,63,30.20,30.02,8,1,9,0.00
2013-12-17,26.5,21.0,13.7,22.4,18.3,11.6,93,89,82,30.02,29.90,11,2,16,0.00
2013-12-18,31.7,24.6,19.5,23.6,20.0,15.9,95,83,68,30.13,29.92,11,2,14,0.00
2013-12-19,40.9,34.5,27.1,34.2,28.7,18.6,91,79,69,29.99,29.88,10,1,14,0.12
2013-12-20,42.7,37.1,34.4,41.9,36.2,33.1,98,97,92,29.90,29.71,6,0,8,0.27
2013-12-21,35.3,34.1,32.6,34.8,33.4,31.6,98,97,96,29.85,29.64,7,0,9,0.67
2013-12-22,38.9,35.2,32.6,36.7,33.6,31.8,98,94,86,29.95,29.53,17,2,24,0.20
2013-12-23,34.7,29.9,22.9,32.8,24.5,15.6,95,80,68,30.30,29.95,14,4,16,0.00
2013-12-24,22.9,16.7,10.1,17.1,9.5,5.9,88,74,58,30.57,30.29,15,4,18,0.00
2013-12-25,25.4,19.7,9.6,22.8,16.2,6.7,91,86,77,30.52,30.14,13,2,18,0.00
2013-12-26,28.6,26.3,24.8,25.6,21.9,17.6,94,83,67,30.31,30.05,17,3,18,0.00
2013-12-27,40.2,33.9,26.0,32.7,28.9,21.3,86,82,73,30.32,30.08,13,2,20,0.05
2013-12-28,48.9,40.3,32.8,37.3,33.5,29.6,89,77,63,30.12,29.90,14,3,16,0.00
2013-12-29,44.7,36.0,24.0,33.6,29.3,18.1,90,77,65,29.99,29.67,13,4,20,0.00
2013-12-30,23.9,19.8,15.3,18.4,11.3,5.5,85,70,60,30.28,29.99,19,3,21,0.00
2013-12-31,20.9,17.5,15.2,17.1,12.6,9.4,90,81,69,30.35,30.07,17,4,18,0.00
2014-1-1,16.6,14.6,13.0,13.9,11.4,9.1,90,87,84,30.41,30.23,7,1,9,0.00
2014-1-2,15.6,12.8,4.6,13.1,8.9,-2.2,90,84,73,30.28,30.08,13,3,20,0.00